Time;durP1;ratioP1;P1;durP2;ratioP2;P2;SDS_P1;SDS_P2;PMS_P1;PMS_P2;Temp;Humidity;BMP_temperature;BMP_pressure;BME280_temperature;BME280_humidity;BME280_pressure;Samples;Min_cycle;Max_cycle;Signal;HPM_P1;HPM_P2
2021/11/28 00:02:26;;;;;;;29.40;16.40;;;5.10;99.90;;;;;;5013381;28;20446;-82
2021/11/28 00:04:57;;;;;;;29.83;15.67;;;5.10;99.90;;;;;;4996987;28;20125;-82
2021/11/28 00:13:03;;;;;;;29.23;16.77;;;5.10;99.90;;;;;;5013742;28;20461;-82
2021/11/28 00:15:29;;;;;;;30.27;16.57;;;5.10;99.90;;;;;;4997901;28;20079;-84
2021/11/28 00:17:54;;;;;;;61.03;36.80;;;5.10;99.90;;;;;;4996653;28;20061;-82
2021/11/28 00:20:20;;;;;;;44.17;27.60;;;5.10;99.90;;;;;;5012716;28;20442;-84
2021/11/28 00:22:46;;;;;;;42.40;24.07;;;5.10;99.90;;;;;;5013511;28;20386;-82
2021/11/28 00:25:16;;;;;;;37.30;22.33;;;5.20;99.90;;;;;;5012367;28;20429;-82
2021/11/28 00:27:44;;;;;;;38.13;20.73;;;5.10;99.90;;;;;;5012050;28;20037;-82
2021/11/28 00:30:22;;;;;;;36.63;21.40;;;5.10;99.90;;;;;;4996366;28;20036;-82
2021/11/28 00:32:48;;;;;;;40.33;20.17;;;5.10;99.90;;;;;;5013855;28;20038;-81
2021/11/28 00:35:14;;;;;;;34.37;19.87;;;5.10;99.90;;;;;;5012757;28;20100;-81
2021/11/28 00:37:39;;;;;;;32.37;19.60;;;5.00;99.90;;;;;;5012691;28;20053;-83
2021/11/28 00:40:06;;;;;;;36.07;19.67;;;5.10;99.90;;;;;;5012560;28;20057;-83
2021/11/28 00:42:32;;;;;;;36.47;19.50;;;5.10;99.90;;;;;;4992792;28;20026;-83
2021/11/28 00:44:58;;;;;;;33.10;19.53;;;5.10;99.90;;;;;;4993091;28;20438;-83
2021/11/28 00:47:24;;;;;;;35.33;20.67;;;5.10;99.90;;;;;;4976786;28;20468;-82
2021/11/28 00:50:36;;;;;;;33.47;19.57;;;5.10;99.90;;;;;;4993481;28;20030;-83
2021/11/28 00:52:43;;;;;;;35.67;19.17;;;5.10;99.90;;;;;;4992256;28;20054;-82
2021/11/28 00:55:10;;;;;;;31.30;18.97;;;5.10;99.90;;;;;;4976521;28;20046;-83
2021/11/28 00:57:36;;;;;;;32.23;19.53;;;5.20;99.90;;;;;;5009504;28;20109;-83
2021/11/28 01:00:08;;;;;;;35.23;20.20;;;5.20;99.90;;;;;;4978144;28;20406;-82
2021/11/28 01:02:34;;;;;;;32.17;18.77;;;5.20;99.90;;;;;;5012181;28;20488;-83
2021/11/28 01:05:03;;;;;;;35.47;19.40;;;5.30;99.90;;;;;;5012178;28;20057;-83
2021/11/28 01:07:30;;;;;;;31.20;19.47;;;5.20;99.90;;;;;;5011959;28;20113;-83
2021/11/28 01:09:56;;;;;;;36.40;20.00;;;5.20;99.90;;;;;;5011978;28;20501;-83
2021/11/28 01:12:23;;;;;;;35.97;19.73;;;5.30;99.90;;;;;;4996029;28;20038;-84
2021/11/28 01:14:50;;;;;;;35.80;19.40;;;5.20;99.90;;;;;;5010968;28;20030;-84
2021/11/28 01:17:17;;;;;;;35.03;19.97;;;5.30;99.90;;;;;;5012360;28;20029;-84
2021/11/28 01:19:43;;;;;;;32.97;19.50;;;5.30;99.90;;;;;;5013634;28;20044;-84
2021/11/28 01:22:11;;;;;;;32.67;19.87;;;5.30;99.90;;;;;;5013783;28;20097;-83
2021/11/28 01:24:38;;;;;;;33.60;19.60;;;5.30;99.90;;;;;;5013624;28;20137;-83
2021/11/28 01:27:07;;;;;;;31.30;19.33;;;5.30;99.90;;;;;;5011817;28;20034;-84
2021/11/28 01:29:32;;;;;;;33.27;19.27;;;5.30;99.90;;;;;;5011819;28;20466;-84
2021/11/28 01:31:58;;;;;;;31.70;18.87;;;5.30;99.90;;;;;;4992215;28;20057;-84
2021/11/28 01:34:25;;;;;;;32.03;19.20;;;5.30;99.90;;;;;;4973213;28;20432;-82
2021/11/28 01:36:51;;;;;;;35.37;20.20;;;5.40;99.90;;;;;;5012491;28;20037;-84
2021/11/28 01:39:17;;;;;;;32.07;19.33;;;5.40;99.90;;;;;;5012894;28;20029;-84
2021/11/28 01:41:42;;;;;;;34.63;19.53;;;5.30;99.90;;;;;;4995973;28;20038;-85
2021/11/28 01:44:09;;;;;;;33.03;19.73;;;5.30;99.90;;;;;;5013663;28;20030;-85
2021/11/28 01:46:34;;;;;;;32.67;18.87;;;5.30;99.90;;;;;;4996019;28;20034;-84
2021/11/28 01:49:00;;;;;;;34.33;19.00;;;5.30;99.90;;;;;;5012212;28;20455;-84
2021/11/28 01:51:26;;;;;;;30.20;18.73;;;5.30;99.90;;;;;;4995652;28;20046;-84
2021/11/28 01:53:54;;;;;;;36.10;19.77;;;5.30;99.90;;;;;;5012416;28;20038;-83
2021/11/28 01:56:23;;;;;;;36.47;19.50;;;5.30;99.90;;;;;;5011264;28;20558;-83
2021/11/28 01:58:49;;;;;;;34.80;19.20;;;5.30;99.90;;;;;;5011736;28;20024;-84
2021/11/28 02:01:17;;;;;;;34.90;19.47;;;5.30;99.90;;;;;;4996465;28;20030;-85
2021/11/28 02:03:44;;;;;;;39.70;20.77;;;5.20;99.90;;;;;;5011888;28;20026;-83
2021/11/28 02:06:13;;;;;;;32.73;19.73;;;5.30;99.90;;;;;;4996334;28;20061;-84
2021/11/28 02:08:39;;;;;;;35.63;19.17;;;5.30;99.90;;;;;;5014209;28;20030;-84
2021/11/28 02:11:05;;;;;;;37.63;20.97;;;5.20;99.90;;;;;;5020748;28;20034;-83
2021/11/28 02:13:32;;;;;;;37.47;20.17;;;5.30;99.90;;;;;;5001174;28;20038;-83
2021/11/28 02:15:58;;;;;;;37.40;20.80;;;5.20;99.90;;;;;;4993992;28;20106;-83
2021/11/28 02:18:25;;;;;;;36.67;20.33;;;5.20;99.90;;;;;;4996346;28;20447;-83
2021/11/28 02:20:57;;;;;;;33.37;19.50;;;5.20;99.90;;;;;;5002183;28;20041;-83
2021/11/28 02:23:23;;;;;;;36.10;19.97;;;5.20;99.90;;;;;;5017467;28;20038;-82
2021/11/28 02:25:54;;;;;;;34.77;19.70;;;5.20;99.90;;;;;;5015639;28;20054;-82
2021/11/28 02:28:20;;;;;;;35.40;19.40;;;5.20;99.90;;;;;;5015168;28;20551;-83
2021/11/28 02:30:46;;;;;;;37.17;19.87;;;5.20;99.90;;;;;;5014217;28;20137;-82
2021/11/28 02:33:12;;;;;;;40.23;20.63;;;5.20;99.90;;;;;;5015017;28;20024;-82
2021/11/28 02:35:37;;;;;;;39.03;20.83;;;5.10;99.90;;;;;;5014390;28;20609;-82
2021/11/28 02:38:05;;;;;;;35.63;19.93;;;5.10;99.90;;;;;;5014564;28;20084;-82
2021/11/28 02:40:32;;;;;;;36.57;20.30;;;5.10;99.90;;;;;;5015810;28;20057;-82
2021/11/28 02:42:58;;;;;;;35.00;19.10;;;5.10;99.90;;;;;;4998310;28;20065;-82
2021/11/28 02:45:26;;;;;;;41.63;19.63;;;5.10;99.90;;;;;;5014812;28;20482;-82
2021/11/28 02:47:54;;;;;;;42.70;20.43;;;5.00;99.90;;;;;;5014491;28;20470;-82
2021/11/28 02:50:22;;;;;;;35.73;19.00;;;5.00;99.90;;;;;;5014935;28;20018;-83
2021/11/28 02:52:55;;;;;;;35.83;19.63;;;5.00;99.90;;;;;;5014474;28;20128;-84
2021/11/28 02:55:41;;;;;;;36.75;18.23;;;5.00;99.90;;;;;;5014976;28;20046;-83
2021/11/28 02:58:09;;;;;;;40.03;19.70;;;5.00;99.90;;;;;;5013688;28;20026;-84
2021/11/28 03:00:37;;;;;;;38.60;19.30;;;5.00;99.90;;;;;;5016026;28;20034;-84
2021/11/28 03:03:03;;;;;;;37.47;19.70;;;5.00;99.90;;;;;;5014505;28;20184;-82
2021/11/28 03:05:28;;;;;;;38.50;19.63;;;5.00;99.90;;;;;;4997850;28;20038;-81
2021/11/28 03:07:54;;;;;;;40.37;20.03;;;5.00;99.90;;;;;;4997731;28;20037;-81
2021/11/28 03:10:47;;;;;;;38.10;20.07;;;5.00;99.90;;;;;;5014067;28;20030;-81
2021/11/28 03:13:25;;;;;;;37.67;20.23;;;5.00;99.90;;;;;;5015389;28;20041;-81
2021/11/28 03:15:54;;;;;;;38.50;20.73;;;4.90;99.90;;;;;;5013852;28;20120;-80
2021/11/28 03:18:22;;;;;;;39.27;20.27;;;4.90;99.90;;;;;;5014363;28;20121;-80
2021/11/28 03:20:51;;;;;;;41.87;20.90;;;4.90;99.90;;;;;;5013979;28;20545;-80
2021/11/28 03:23:18;;;;;;;38.53;19.10;;;4.80;99.90;;;;;;5014044;28;20428;-80
2021/11/28 03:25:44;;;;;;;38.87;20.60;;;4.80;99.90;;;;;;5009717;28;20492;-80
2021/11/28 03:28:15;;;;;;;37.50;20.03;;;4.80;99.90;;;;;;4997288;28;20030;-80
2021/11/28 03:30:43;;;;;;;35.50;19.77;;;4.80;99.90;;;;;;5013043;28;20044;-81
2021/11/28 03:33:09;;;;;;;37.73;20.27;;;4.80;99.90;;;;;;5013786;28;20420;-81
2021/11/28 03:35:35;;;;;;;37.77;20.27;;;4.80;99.90;;;;;;5013435;28;20026;-81
2021/11/28 03:38:01;;;;;;;38.77;20.17;;;4.80;99.90;;;;;;5013554;28;20030;-80
2021/11/28 03:40:27;;;;;;;40.60;20.90;;;4.80;99.90;;;;;;4997461;28;20486;-81
2021/11/28 03:42:53;;;;;;;38.83;19.93;;;4.80;99.90;;;;;;5011719;28;20084;-79
2021/11/28 03:45:19;;;;;;;34.03;18.80;;;4.80;99.90;;;;;;4996641;28;20037;-80
2021/11/28 03:47:46;;;;;;;37.43;20.17;;;4.80;99.90;;;;;;4997316;28;20121;-80
2021/11/28 03:50:12;;;;;;;37.20;19.70;;;4.80;99.90;;;;;;4997529;28;20033;-80
2021/11/28 03:52:38;;;;;;;43.93;21.27;;;4.80;99.90;;;;;;5005181;28;20046;-80
2021/11/28 03:55:05;;;;;;;37.10;18.77;;;4.80;99.90;;;;;;4977349;28;20040;-80
2021/11/28 03:57:31;;;;;;;36.57;18.77;;;4.80;99.90;;;;;;5029084;28;20033;-80
2021/11/28 03:59:56;;;;;;;38.20;20.20;;;4.90;99.90;;;;;;5013507;28;20018;-81
2021/11/28 04:02:22;;;;;;;34.47;18.73;;;4.90;99.90;;;;;;5013501;28;20057;-81
2021/11/28 04:04:48;;;;;;;32.67;18.27;;;4.90;99.90;;;;;;5014425;28;20475;-81
2021/11/28 04:07:14;;;;;;;37.93;18.90;;;4.80;99.90;;;;;;5012214;28;20030;-81
2021/11/28 04:09:40;;;;;;;43.73;19.67;;;4.90;99.90;;;;;;5012870;28;20109;-81
2021/11/28 04:12:06;;;;;;;35.17;18.73;;;4.90;99.90;;;;;;4996661;28;20136;-80
2021/11/28 04:14:32;;;;;;;40.00;20.03;;;4.90;99.90;;;;;;5013392;28;20026;-81
2021/11/28 04:16:58;;;;;;;40.03;18.30;;;4.90;99.90;;;;;;5012594;28;20037;-81
2021/11/28 04:19:24;;;;;;;35.90;19.23;;;4.90;99.90;;;;;;4996626;28;20033;-82
2021/11/28 04:21:49;;;;;;;40.37;19.03;;;4.90;99.90;;;;;;4995766;28;20049;-82
2021/11/28 04:24:15;;;;;;;34.67;18.77;;;4.90;99.90;;;;;;4996546;28;20026;-81
2021/11/28 04:26:41;;;;;;;36.57;18.17;;;4.90;99.90;;;;;;5013201;28;20073;-82
2021/11/28 04:29:07;;;;;;;35.40;19.23;;;4.90;99.90;;;;;;4993027;28;20031;-80
2021/11/28 04:31:33;;;;;;;34.23;18.00;;;4.90;99.90;;;;;;4993246;28;20475;-81
2021/11/28 04:33:58;;;;;;;38.83;19.57;;;4.90;99.90;;;;;;4976722;28;20037;-81
2021/11/28 04:36:24;;;;;;;34.97;18.10;;;4.80;99.90;;;;;;5002380;28;20049;-81
2021/11/28 04:38:50;;;;;;;34.13;17.47;;;5.00;99.90;;;;;;4987716;28;20033;-82
2021/11/28 04:41:15;;;;;;;36.23;18.20;;;5.00;99.90;;;;;;4976669;28;20027;-82
2021/11/28 04:43:41;;;;;;;33.30;17.77;;;5.00;99.90;;;;;;4979829;28;20029;-81
2021/11/28 04:46:07;;;;;;;34.20;18.03;;;5.00;99.90;;;;;;5012857;28;20062;-81
2021/11/28 04:48:32;;;;;;;38.83;19.77;;;5.00;99.90;;;;;;4996010;28;20026;-81
2021/11/28 04:50:58;;;;;;;34.33;17.87;;;5.00;99.90;;;;;;5012471;28;20061;-81
2021/11/28 04:53:24;;;;;;;34.63;18.20;;;4.90;99.90;;;;;;4996009;28;20033;-81
2021/11/28 04:55:49;;;;;;;36.30;18.13;;;5.00;99.90;;;;;;4992108;28;20514;-81
2021/11/28 04:58:15;;;;;;;34.57;18.00;;;5.00;99.90;;;;;;5011392;28;20509;-81
2021/11/28 05:00:41;;;;;;;34.67;18.00;;;5.00;99.90;;;;;;5012191;28;20409;-82
2021/11/28 05:03:07;;;;;;;35.40;19.30;;;5.00;99.90;;;;;;5012210;28;20041;-82
2021/11/28 05:05:33;;;;;;;32.73;17.17;;;5.00;99.90;;;;;;4995560;28;20095;-81
2021/11/28 05:07:59;;;;;;;31.50;17.27;;;5.00;99.90;;;;;;5012047;28;20018;-81
2021/11/28 05:10:25;;;;;;;34.93;17.90;;;5.00;99.90;;;;;;4993135;28;20042;-81
2021/11/28 05:12:50;;;;;;;37.47;18.00;;;5.00;99.90;;;;;;5009301;28;20049;-81
2021/11/28 05:15:17;;;;;;;35.60;18.83;;;4.90;99.90;;;;;;5010036;28;20018;-81
2021/11/28 05:17:43;;;;;;;34.57;18.53;;;4.90;99.90;;;;;;4997466;28;20398;-83
2021/11/28 05:20:09;;;;;;;35.07;18.70;;;4.90;99.90;;;;;;4977715;28;20026;-82
2021/11/28 05:22:35;;;;;;;35.03;17.57;;;4.90;99.90;;;;;;5007431;28;20038;-82
2021/11/28 05:25:02;;;;;;;33.40;17.60;;;4.90;99.90;;;;;;5010576;28;20029;-82
2021/11/28 05:27:28;;;;;;;32.27;18.10;;;4.90;99.90;;;;;;5001260;28;20081;-82
2021/11/28 05:29:53;;;;;;;33.83;18.60;;;4.90;99.90;;;;;;4976617;28;20034;-82
2021/11/28 05:32:19;;;;;;;33.57;17.30;;;4.80;99.90;;;;;;5011475;28;20482;-82
2021/11/28 05:34:45;;;;;;;32.83;17.13;;;4.80;99.90;;;;;;5012299;28;20026;-82
2021/11/28 05:37:11;;;;;;;34.63;17.33;;;4.80;99.90;;;;;;5013445;28;20027;-82
2021/11/28 05:39:37;;;;;;;37.63;19.67;;;4.80;99.90;;;;;;4995947;28;20033;-82
2021/11/28 05:42:03;;;;;;;33.53;17.47;;;4.70;99.90;;;;;;5011841;28;20471;-82
2021/11/28 05:44:29;;;;;;;36.23;17.60;;;4.80;99.90;;;;;;5011368;28;20029;-83
2021/11/28 05:46:55;;;;;;;38.07;19.27;;;4.80;99.90;;;;;;4995639;28;20030;-83
2021/11/28 05:49:20;;;;;;;38.03;18.70;;;4.70;99.90;;;;;;5012397;28;20030;-80
2021/11/28 05:51:46;;;;;;;40.70;19.93;;;4.80;99.90;;;;;;4995349;28;20057;-80
2021/11/28 05:54:12;;;;;;;37.07;19.20;;;4.70;99.90;;;;;;5017810;28;20030;-82
2021/11/28 05:56:37;;;;;;;36.73;20.03;;;4.70;99.90;;;;;;5011374;28;20096;-83
2021/11/28 05:59:03;;;;;;;37.57;20.07;;;4.70;99.90;;;;;;5015166;28;20057;-81
2021/11/28 06:01:30;;;;;;;39.43;20.40;;;4.60;99.90;;;;;;4984330;28;20038;-81
2021/11/28 06:03:56;;;;;;;39.83;20.13;;;4.60;99.90;;;;;;4998153;28;20037;-81
2021/11/28 06:06:21;;;;;;;40.40;20.37;;;4.60;99.80;;;;;;4998029;28;20554;-81
2021/11/28 06:08:47;;;;;;;39.70;19.67;;;4.50;99.80;;;;;;4963713;28;20034;-82
2021/11/28 06:11:13;;;;;;;39.43;19.83;;;4.50;99.80;;;;;;5005183;28;20084;-81
2021/11/28 06:13:38;;;;;;;39.97;20.73;;;4.50;99.80;;;;;;4999051;28;20026;-81
2021/11/28 06:16:05;;;;;;;37.70;20.10;;;4.50;99.80;;;;;;5008095;28;20433;-80
2021/11/28 06:18:32;;;;;;;42.40;20.23;;;4.50;99.80;;;;;;4995629;28;20061;-81
2021/11/28 06:20:57;;;;;;;43.80;20.43;;;4.40;99.70;;;;;;5001129;28;20025;-81
2021/11/28 06:23:23;;;;;;;39.30;20.53;;;4.30;99.60;;;;;;5010876;28;20466;-81
2021/11/28 06:25:49;;;;;;;44.80;21.50;;;4.30;99.60;;;;;;4995434;28;20571;-81
2021/11/28 06:28:14;;;;;;;38.57;20.40;;;4.30;99.60;;;;;;4994177;28;20061;-81
2021/11/28 06:30:40;;;;;;;44.50;21.87;;;4.20;99.50;;;;;;4996523;28;20045;-82
2021/11/28 06:33:06;;;;;;;42.77;21.13;;;4.20;99.50;;;;;;4995360;28;20030;-81
2021/11/28 06:35:32;;;;;;;47.77;21.40;;;4.20;99.60;;;;;;4996572;28;20030;-81
2021/11/28 06:37:58;;;;;;;41.73;20.43;;;4.20;99.60;;;;;;4996028;28;20030;-81
2021/11/28 06:40:24;;;;;;;44.93;20.97;;;4.20;99.50;;;;;;4995346;28;20368;-81
2021/11/28 06:42:49;;;;;;;44.33;20.33;;;4.20;99.50;;;;;;5014404;28;20030;-81
2021/11/28 06:45:15;;;;;;;44.73;21.00;;;4.10;99.50;;;;;;5014746;28;20040;-82
2021/11/28 06:47:41;;;;;;;44.53;20.63;;;4.10;99.50;;;;;;5015829;28;20030;-79
2021/11/28 06:50:07;;;;;;;42.60;19.73;;;4.10;99.40;;;;;;4994799;28;20035;-79
2021/11/28 06:52:33;;;;;;;43.10;20.17;;;4.00;99.40;;;;;;4997402;28;20049;-79
2021/11/28 06:54:58;;;;;;;43.40;20.87;;;4.10;99.40;;;;;;5014531;28;20030;-79
2021/11/28 06:57:24;;;;;;;49.83;21.27;;;4.00;99.40;;;;;;5014042;28;20498;-79
2021/11/28 06:59:50;;;;;;;46.50;22.47;;;3.90;99.40;;;;;;5014128;28;20781;-79
2021/11/28 07:02:17;;;;;;;47.53;22.43;;;4.00;99.50;;;;;;5000911;28;20553;-79
2021/11/28 07:04:42;;;;;;;51.37;23.87;;;3.90;99.60;;;;;;4997249;28;20040;-79
2021/11/28 07:07:09;;;;;;;59.60;23.97;;;3.80;99.50;;;;;;4997543;28;20026;-80
2021/11/28 07:09:35;;;;;;;63.23;26.60;;;3.80;99.60;;;;;;5006431;28;20034;-80
2021/11/28 07:12:01;;;;;;;59.70;24.17;;;3.80;99.70;;;;;;5010174;28;20046;-79
2021/11/28 07:14:27;;;;;;;64.27;26.40;;;3.80;99.90;;;;;;4991225;28;20038;-80
2021/11/28 07:16:52;;;;;;;62.07;27.10;;;3.90;99.90;;;;;;5002553;28;20027;-80
2021/11/28 07:19:18;;;;;;;62.00;25.10;;;3.90;99.90;;;;;;5003170;28;20478;-80
2021/11/28 07:21:44;;;;;;;69.17;26.00;;;4.00;99.90;;;;;;5007036;28;20379;-81
2021/11/28 07:24:09;;;;;;;65.90;25.20;;;4.00;99.90;;;;;;4976723;28;20402;-82
2021/11/28 07:26:35;;;;;;;78.23;26.43;;;4.00;99.90;;;;;;4993177;28;20077;-80
2021/11/28 07:29:01;;;;;;;59.47;25.20;;;4.00;99.90;;;;;;4980260;28;20113;-80
2021/11/28 07:31:27;;;;;;;61.57;25.53;;;4.10;99.90;;;;;;5012937;28;20038;-80
2021/11/28 07:33:52;;;;;;;69.37;24.83;;;4.10;99.90;;;;;;4996954;28;20478;-82
2021/11/28 07:36:19;;;;;;;78.67;22.57;;;4.10;99.90;;;;;;4997187;28;20478;-81
2021/11/28 07:38:45;;;;;;;61.23;22.57;;;4.10;99.90;;;;;;5003761;28;20554;-81
2021/11/28 07:41:11;;;;;;;76.10;24.43;;;4.10;99.90;;;;;;5000108;28;20116;-82
2021/11/28 07:43:37;;;;;;;60.10;21.57;;;4.00;99.90;;;;;;4996974;28;20449;-82
2021/11/28 07:46:04;;;;;;;74.50;23.30;;;4.00;99.90;;;;;;4995641;28;20034;-80
2021/11/28 07:48:30;;;;;;;56.73;23.10;;;4.00;99.90;;;;;;4994006;28;20034;-81
2021/11/28 07:50:58;;;;;;;47.30;22.47;;;4.00;99.90;;;;;;4979944;28;20437;-80
2021/11/28 07:53:27;;;;;;;51.07;21.73;;;3.90;99.90;;;;;;4997440;28;20030;-81
2021/11/28 07:55:53;;;;;;;49.30;20.67;;;4.00;99.90;;;;;;4997131;28;20109;-82
2021/11/28 07:58:19;;;;;;;46.30;21.53;;;4.00;99.90;;;;;;4977264;28;20121;-81
2021/11/28 08:00:44;;;;;;;47.10;21.53;;;3.90;99.90;;;;;;4961709;28;20042;-81
2021/11/28 08:03:10;;;;;;;42.17;20.00;;;4.00;99.90;;;;;;4994064;28;20037;-80
2021/11/28 08:05:36;;;;;;;50.97;20.93;;;3.90;99.90;;;;;;5004713;28;20033;-80
2021/11/28 08:08:04;;;;;;;62.67;21.17;;;3.90;99.90;;;;;;5013029;28;20088;-80
2021/11/28 08:10:30;;;;;;;52.73;19.67;;;4.00;99.90;;;;;;4996211;28;20026;-80
2021/11/28 08:12:56;;;;;;;47.43;18.93;;;4.00;99.90;;;;;;5012591;28;20069;-81
2021/11/28 08:15:21;;;;;;;47.73;19.03;;;4.00;99.90;;;;;;5012215;28;20088;-80
2021/11/28 08:17:48;;;;;;;45.50;19.40;;;4.00;99.90;;;;;;4995280;28;20026;-80
2021/11/28 08:20:16;;;;;;;45.53;19.00;;;4.10;99.90;;;;;;4998151;28;20053;-79
2021/11/28 08:22:41;;;;;;;59.73;20.37;;;4.00;99.90;;;;;;5014256;28;20030;-79
2021/11/28 08:25:09;;;;;;;45.60;20.00;;;4.10;99.90;;;;;;5013837;28;20382;-80
2021/11/28 08:27:35;;;;;;;45.43;18.60;;;4.00;99.90;;;;;;4994744;28;20107;-79
2021/11/28 08:30:04;;;;;;;50.70;19.70;;;3.90;99.90;;;;;;5013760;28;20054;-80
2021/11/28 08:32:30;;;;;;;40.63;17.47;;;4.00;99.90;;;;;;5012302;28;20127;-80
2021/11/28 08:34:56;;;;;;;40.83;17.57;;;4.10;99.90;;;;;;5001681;28;20090;-80
2021/11/28 08:37:21;;;;;;;46.27;18.83;;;4.00;99.90;;;;;;4960694;28;20023;-79
2021/11/28 08:39:47;;;;;;;39.57;18.90;;;4.10;99.90;;;;;;4997217;28;20041;-80
2021/11/28 08:42:13;;;;;;;45.53;17.93;;;4.00;99.90;;;;;;4996057;28;20061;-80
2021/11/28 08:44:40;;;;;;;48.20;19.00;;;4.00;99.90;;;;;;5011808;28;20080;-79
2021/11/28 08:47:06;;;;;;;41.53;18.50;;;4.00;99.90;;;;;;4996307;28;20034;-81
2021/11/28 08:49:32;;;;;;;42.10;18.83;;;4.00;99.90;;;;;;4994404;28;20088;-80
2021/11/28 08:51:58;;;;;;;44.33;18.63;;;4.00;99.90;;;;;;4995330;28;20479;-81
2021/11/28 08:54:24;;;;;;;42.30;19.00;;;4.10;99.90;;;;;;4995185;28;20038;-80
2021/11/28 08:56:51;;;;;;;44.50;19.37;;;4.10;99.90;;;;;;5011356;28;20054;-80
2021/11/28 08:59:18;;;;;;;47.03;20.70;;;4.10;99.90;;;;;;5011792;28;20033;-80
2021/11/28 09:01:44;;;;;;;38.77;18.40;;;4.20;99.90;;;;;;5011813;28;20026;-81
2021/11/28 09:04:10;;;;;;;41.47;18.93;;;4.10;99.90;;;;;;4995074;28;20029;-81
2021/11/28 09:06:35;;;;;;;38.80;18.37;;;4.20;99.90;;;;;;4995059;28;20544;-81
2021/11/28 09:09:02;;;;;;;37.10;18.50;;;4.20;99.90;;;;;;5012342;28;20045;-81
2021/11/28 09:11:27;;;;;;;34.63;17.57;;;4.30;99.90;;;;;;4995435;28;20034;-80
2021/11/28 09:13:53;;;;;;;41.10;18.67;;;4.30;99.90;;;;;;5012569;28;20048;-80
2021/11/28 09:16:19;;;;;;;35.00;17.30;;;4.30;99.90;;;;;;5011729;28;20100;-81
2021/11/28 09:19:11;;;;;;;42.40;18.57;;;4.40;99.90;;;;;;5011819;28;20454;-80
2021/11/28 09:21:30;;;;;;;36.37;18.00;;;4.50;99.90;;;;;;5011256;28;20152;-80
2021/11/28 09:26:44;;;;;;;35.20;16.73;;;4.60;99.90;;;;;;5008058;28;20414;-80
2021/11/28 09:29:11;;;;;;;35.07;18.17;;;4.70;99.90;;;;;;5015638;28;20083;-80
2021/11/28 09:31:36;;;;;;;31.87;16.23;;;4.80;99.90;;;;;;5015303;28;20045;-81
2021/11/28 09:34:02;;;;;;;33.33;17.50;;;4.80;99.90;;;;;;4999038;28;20030;-81
2021/11/28 09:36:31;;;;;;;29.17;15.53;;;4.90;99.90;;;;;;5015608;28;20022;-81
2021/11/28 09:38:58;;;;;;;31.37;16.40;;;5.00;99.90;;;;;;5013824;28;20029;-81
2021/11/28 09:41:27;;;;;;;29.97;15.30;;;5.10;99.90;;;;;;4979819;28;20038;-81
2021/11/28 09:43:55;;;;;;;30.23;16.33;;;5.30;99.90;;;;;;5014718;28;20017;-81
2021/11/28 09:46:25;;;;;;;29.33;16.57;;;5.40;99.90;;;;;;5013858;28;20032;-81
2021/11/28 09:48:57;;;;;;;31.83;16.40;;;5.40;99.90;;;;;;4999170;28;20120;-80
2021/11/28 09:51:23;;;;;;;27.37;15.40;;;5.60;99.90;;;;;;5015705;28;20034;-81
2021/11/28 09:53:49;;;;;;;29.23;15.70;;;5.70;99.90;;;;;;5015127;28;20034;-81
2021/11/28 09:56:15;;;;;;;27.73;15.93;;;5.90;99.90;;;;;;4995392;28;20068;-81
2021/11/28 09:58:42;;;;;;;28.60;15.73;;;5.80;99.90;;;;;;5014654;28;20500;-80
2021/11/28 10:01:08;;;;;;;27.77;15.23;;;5.80;99.90;;;;;;4998766;28;20033;-81
2021/11/28 10:03:33;;;;;;;28.07;16.47;;;5.90;99.90;;;;;;4998683;28;20109;-81
2021/11/28 10:05:59;;;;;;;30.40;15.57;;;5.90;99.90;;;;;;5014894;28;20025;-81
2021/11/28 10:08:25;;;;;;;28.77;15.87;;;5.80;99.80;;;;;;5014310;28;20454;-80
2021/11/28 10:11:03;;;;;;;29.17;15.17;;;5.90;99.80;;;;;;4999132;28;20471;-81
2021/11/28 10:13:30;;;;;;;27.37;15.63;;;5.90;99.70;;;;;;5014496;28;20034;-81
2021/11/28 10:15:56;;;;;;;26.67;15.17;;;5.90;99.50;;;;;;4998669;28;20120;-82
2021/11/28 10:18:21;;;;;;;27.57;15.10;;;5.90;99.30;;;;;;5014495;28;20492;-82
2021/11/28 10:20:50;;;;;;;28.80;16.57;;;5.90;99.20;;;;;;4998704;28;20029;-82
2021/11/28 10:23:16;;;;;;;28.47;16.07;;;5.80;99.20;;;;;;5014029;28;20029;-82
2021/11/28 10:25:41;;;;;;;29.90;16.43;;;5.70;99.10;;;;;;4998044;28;20088;-82
2021/11/28 10:28:11;;;;;;;30.07;16.30;;;5.70;99.10;;;;;;5014535;28;20120;-82
2021/11/28 10:30:43;;;;;;;31.43;16.50;;;5.70;99.20;;;;;;4995399;28;20033;-82
2021/11/28 10:33:17;;;;;;;28.27;15.93;;;5.70;99.10;;;;;;5013385;28;20073;-83
2021/11/28 10:35:59;;;;;;;24.73;14.60;;;5.70;99.10;;;;;;5014599;28;20053;-82
2021/11/28 10:38:32;;;;;;;28.67;16.20;;;5.80;99.10;;;;;;5013826;28;20030;-82
2021/11/28 10:40:58;;;;;;;27.40;14.32;;;5.80;99.10;;;;;;5015368;28;20052;-82
2021/11/28 10:43:26;;;;;;;30.60;15.60;;;5.80;99.00;;;;;;5013119;28;20025;-82
2021/11/28 10:45:52;;;;;;;27.97;14.97;;;5.70;98.70;;;;;;4996629;28;20065;-82
2021/11/28 10:48:27;;;;;;;29.13;15.60;;;5.70;98.70;;;;;;5014280;28;20346;-82
2021/11/28 10:50:54;;;;;;;33.07;17.03;;;5.70;98.70;;;;;;4998116;28;20049;-82
2021/11/28 10:53:22;;;;;;;29.10;15.70;;;5.70;98.70;;;;;;5013314;28;20065;-82
2021/11/28 10:55:53;;;;;;;30.57;16.27;;;5.70;98.70;;;;;;5014070;28;20037;-82
2021/11/28 10:58:27;;;;;;;30.77;16.03;;;5.60;98.60;;;;;;5013836;28;20113;-82
2021/11/28 11:00:52;;;;;;;30.67;16.67;;;5.70;98.70;;;;;;5013681;28;20102;-81
2021/11/28 11:03:34;;;;;;;27.83;16.07;;;5.60;98.70;;;;;;5012381;28;20474;-82
2021/11/28 11:06:24;;;;;;;31.37;17.40;;;5.60;98.80;;;;;;5013291;28;20022;-82
2021/11/28 11:08:53;;;;;;;31.30;16.87;;;5.70;99.00;;;;;;5013054;28;20021;-81
2021/11/28 11:11:19;;;;;;;29.87;17.03;;;5.80;99.20;;;;;;5013344;28;20034;-81
2021/11/28 11:14:01;;;;;;;31.27;17.33;;;5.90;99.20;;;;;;5012480;28;20045;-81
2021/11/28 11:16:30;;;;;;;30.37;17.27;;;6.00;99.20;;;;;;5012853;28;20064;-82
2021/11/28 11:19:29;;;;;;;30.60;17.13;;;6.00;99.10;;;;;;5013808;28;20030;-81
2021/11/28 11:22:05;;;;;;;33.27;17.90;;;6.10;99.10;;;;;;5000108;28;20037;-81
2021/11/28 11:24:33;;;;;;;32.00;17.77;;;6.10;99.10;;;;;;5014093;28;20018;-81
2021/11/28 11:27:11;;;;;;;32.90;17.87;;;6.20;99.00;;;;;;5013204;28;20120;-82
2021/11/28 11:29:37;;;;;;;33.87;18.27;;;6.20;98.90;;;;;;5013628;28;20438;-81
2021/11/28 11:32:09;;;;;;;30.57;15.90;;;6.10;98.90;;;;;;5013073;28;20092;-81
2021/11/28 11:34:35;;;;;;;28.90;16.10;;;6.20;98.90;;;;;;5013654;28;20022;-81
2021/11/28 11:37:13;;;;;;;28.93;15.97;;;6.30;98.90;;;;;;5013856;28;20498;-82
2021/11/28 11:39:40;;;;;;;29.40;16.90;;;6.30;98.90;;;;;;5014597;28;20109;-81
2021/11/28 11:42:06;;;;;;;28.13;15.37;;;6.40;98.90;;;;;;5009147;28;20145;-82
2021/11/28 11:44:32;;;;;;;25.83;14.83;;;6.50;99.00;;;;;;5013013;28;20054;-82
2021/11/28 11:46:59;;;;;;;26.80;13.50;;;6.50;99.00;;;;;;5029430;28;20053;-82
2021/11/28 11:49:27;;;;;;;26.13;13.60;;;6.60;99.00;;;;;;5009825;28;20048;-81
2021/11/28 11:51:53;;;;;;;23.30;13.43;;;6.70;99.10;;;;;;5010891;28;20048;-82
2021/11/28 11:54:27;;;;;;;21.63;12.33;;;6.90;99.50;;;;;;5004421;28;20454;-82
2021/11/28 11:57:14;;;;;;;23.80;13.07;;;7.10;99.40;;;;;;5003535;28;20054;-81
2021/11/28 11:59:50;;;;;;;26.10;13.07;;;7.20;99.20;;;;;;4998041;28;20034;-81
2021/11/28 12:02:32;;;;;;;20.27;11.47;;;7.30;99.00;;;;;;5012404;28;20057;-82
2021/11/28 12:04:59;;;;;;;20.70;11.23;;;7.30;98.70;;;;;;5013358;28;20034;-81
2021/11/28 12:07:54;;;;;;;24.10;12.27;;;7.20;98.40;;;;;;5012081;28;20554;-81
2021/11/28 12:10:30;;;;;;;;;;;7.20;98.30;;;;;;5012020;28;20149;-81
2021/11/28 12:12:58;;;;;;;25.23;12.30;;;7.20;97.90;;;;;;5010203;28;19969;-81
2021/11/28 12:15:29;;;;;;;22.77;12.47;;;7.10;97.80;;;;;;5014433;28;20026;-81
2021/11/28 12:17:57;;;;;;;20.47;11.10;;;7.10;97.80;;;;;;5012265;28;20042;-81
2021/11/28 12:20:45;;;;;;;18.57;11.03;;;7.10;97.60;;;;;;4993523;28;20121;-81
2021/11/28 12:23:12;;;;;;;19.43;10.57;;;7.10;97.50;;;;;;5016119;28;20075;-82
2021/11/28 12:25:42;;;;;;;18.77;10.20;;;7.10;97.40;;;;;;4992720;28;20030;-82
2021/11/28 12:28:20;;;;;;;20.00;9.50;;;7.10;97.40;;;;;;5007453;28;20117;-82
2021/11/28 12:30:52;;;;;;;16.77;8.70;;;6.90;97.20;;;;;;5007499;28;20031;-81
2021/11/28 12:33:18;;;;;;;15.20;7.13;;;6.90;97.10;;;;;;5025921;28;20037;-82
2021/11/28 12:35:44;;;;;;;10.67;5.53;;;6.80;96.80;;;;;;5012419;28;20036;-82
2021/11/28 12:38:09;;;;;;;11.93;4.60;;;6.70;96.60;;;;;;5012238;28;20018;-83
2021/11/28 12:40:44;;;;;;;9.07;3.90;;;6.50;96.40;;;;;;5013512;28;20022;-83
2021/11/28 12:43:16;;;;;;;10.10;4.17;;;6.60;96.50;;;;;;5028612;28;20054;-81
2021/11/28 12:45:42;;;;;;;8.63;4.03;;;6.50;96.60;;;;;;5023237;28;20032;-81
2021/11/28 12:48:17;;;;;;;7.73;3.10;;;6.60;96.80;;;;;;4989232;28;20025;-82
2021/11/28 12:51:00;;;;;;;7.47;1.97;;;6.60;96.70;;;;;;5013044;28;20021;-83